Time;durP1;ratioP1;P1;durP2;ratioP2;P2;SDS_P1;SDS_P2;PMS_P1;PMS_P2;Temp;Humidity;BMP_temperature;BMP_pressure;BME280_temperature;BME280_humidity;BME280_pressure;Samples;Min_cycle;Max_cycle;Signal;HPM_P1;HPM_P2
2022/05/09 00:00:22;;;;;;;5.75;4.03;;;16.00;99.90;;;;;;5015505;28;20076;-77
2022/05/09 00:02:48;;;;;;;4.57;3.80;;;15.90;99.90;;;;;;5015574;28;20459;-77
2022/05/09 00:05:18;;;;;;;7.97;4.32;;;15.90;99.90;;;;;;5032868;28;20030;-77
2022/05/09 00:07:44;;;;;;;8.20;4.30;;;15.90;99.90;;;;;;5015768;28;20552;-77
2022/05/09 00:10:12;;;;;;;5.47;4.25;;;15.90;99.90;;;;;;5032866;28;20057;-77
2022/05/09 00:12:38;;;;;;;5.30;3.88;;;15.90;99.90;;;;;;5015666;28;20033;-76
2022/05/09 00:15:05;;;;;;;5.20;4.07;;;15.90;99.90;;;;;;5014981;28;20071;-78
2022/05/09 00:17:30;;;;;;;5.65;4.10;;;15.80;99.90;;;;;;5015646;28;20075;-77
2022/05/09 00:19:56;;;;;;;8.07;4.60;;;15.80;99.90;;;;;;5032233;28;20418;-77
2022/05/09 00:22:22;;;;;;;5.15;3.78;;;15.80;99.90;;;;;;5032216;28;20361;-77
2022/05/09 00:24:47;;;;;;;6.22;4.00;;;15.70;99.90;;;;;;5033113;28;20059;-77
2022/05/09 00:27:13;;;;;;;11.27;4.72;;;15.70;99.90;;;;;;5014894;28;20033;-77
2022/05/09 00:29:38;;;;;;;8.20;4.63;;;15.60;99.90;;;;;;5033033;28;20037;-76
2022/05/09 00:32:04;;;;;;;6.25;4.70;;;15.50;99.90;;;;;;5014718;28;20103;-78
2022/05/09 00:34:30;;;;;;;5.65;4.18;;;15.50;99.90;;;;;;5015352;28;20021;-77
2022/05/09 00:36:57;;;;;;;6.00;4.30;;;15.40;99.90;;;;;;5015329;28;20041;-77
2022/05/09 00:39:23;;;;;;;6.88;4.90;;;15.40;99.90;;;;;;5014638;28;20465;-78
2022/05/09 00:41:49;;;;;;;10.35;4.85;;;15.40;99.90;;;;;;5033128;28;20033;-77
2022/05/09 00:44:20;;;;;;;7.53;4.57;;;15.30;99.90;;;;;;5014829;28;20480;-77
2022/05/09 00:46:49;;;;;;;11.93;5.40;;;15.30;99.90;;;;;;5015343;28;20039;-77
2022/05/09 00:49:34;;;;;;;8.57;4.90;;;15.30;99.90;;;;;;5014980;28;20494;-77
2022/05/09 00:52:18;;;;;;;7.05;4.85;;;15.20;99.90;;;;;;5004931;28;20050;-80
2022/05/09 00:54:48;;;;;;;7.90;4.93;;;15.20;99.90;;;;;;5015637;28;20029;-76
2022/05/09 00:57:23;;;;;;;5.70;4.40;;;15.10;99.90;;;;;;5014965;28;20120;-77
2022/05/09 00:59:54;;;;;;;11.38;5.28;;;15.10;99.90;;;;;;5015490;28;20459;-76
2022/05/09 01:02:21;;;;;;;8.00;5.07;;;15.00;99.90;;;;;;5014989;28;20120;-77
2022/05/09 01:04:54;;;;;;;8.60;5.28;;;15.00;99.90;;;;;;5014753;28;20029;-77
2022/05/09 01:07:22;;;;;;;7.65;5.20;;;15.00;99.90;;;;;;5014596;28;20057;-77
2022/05/09 01:09:48;;;;;;;11.45;5.72;;;15.00;99.90;;;;;;5015176;28;20044;-76
2022/05/09 01:12:17;;;;;;;7.90;5.05;;;15.00;99.90;;;;;;5031985;28;20060;-77
2022/05/09 01:14:43;;;;;;;9.68;5.32;;;15.00;99.90;;;;;;5032530;28;20033;-76
2022/05/09 01:17:09;;;;;;;7.38;5.10;;;14.90;99.90;;;;;;5014235;28;20036;-77
2022/05/09 01:19:42;;;;;;;8.13;5.80;;;14.90;99.90;;;;;;5031711;28;20485;-77
2022/05/09 01:22:24;;;;;;;8.93;5.38;;;14.90;99.90;;;;;;5014684;28;20494;-77
2022/05/09 01:24:50;;;;;;;;;;;14.90;99.90;;;;;;5019444;28;20120;-77
2022/05/09 01:27:16;;;;;;;8.40;5.38;;;14.90;99.90;;;;;;5018449;28;19905;-77
2022/05/09 01:29:57;;;;;;;10.38;5.97;;;14.90;99.90;;;;;;5018776;28;20029;-77
2022/05/09 01:32:35;;;;;;;9.77;5.28;;;14.90;99.90;;;;;;5017894;28;20033;-77
2022/05/09 01:35:07;;;;;;;8.95;5.53;;;14.90;99.90;;;;;;5036513;28;20037;-77
2022/05/09 01:37:33;;;;;;;7.78;5.07;;;14.80;99.90;;;;;;5018689;28;20032;-77
2022/05/09 01:39:59;;;;;;;9.55;5.88;;;14.80;99.90;;;;;;5035305;28;20037;-77
2022/05/09 01:42:25;;;;;;;9.13;5.20;;;14.80;99.90;;;;;;5017776;28;20025;-76
2022/05/09 01:44:51;;;;;;;8.65;4.85;;;14.80;99.90;;;;;;5034790;28;20083;-77
2022/05/09 01:50:01;;;;;;;7.70;5.00;;;14.90;99.90;;;;;;5036181;28;20453;-76
2022/05/09 01:52:27;;;;;;;8.25;5.53;;;14.80;99.90;;;;;;5035462;28;20049;-77
2022/05/09 01:54:53;;;;;;;8.80;5.60;;;14.80;99.90;;;;;;5018491;28;20029;-77
2022/05/09 01:57:19;;;;;;;8.30;5.55;;;14.80;99.90;;;;;;5017800;28;20424;-77
2022/05/09 01:59:45;;;;;;;8.60;5.38;;;14.80;99.90;;;;;;5035885;28;20454;-77
2022/05/09 02:02:18;;;;;;;9.48;6.10;;;14.80;99.90;;;;;;5017683;28;20026;-77
2022/05/09 02:04:43;;;;;;;11.32;6.18;;;14.70;99.90;;;;;;5017742;28;20028;-77
2022/05/09 02:07:15;;;;;;;8.93;5.97;;;14.70;99.90;;;;;;5035086;28;20108;-78
2022/05/09 02:09:46;;;;;;;8.57;5.43;;;14.60;99.90;;;;;;5017735;28;20156;-77
2022/05/09 02:12:13;;;;;;;9.77;5.90;;;14.60;99.90;;;;;;5017531;28;20038;-77
2022/05/09 02:14:39;;;;;;;8.15;5.72;;;14.50;99.90;;;;;;5017856;28;20060;-76
2022/05/09 02:17:07;;;;;;;7.90;5.63;;;14.60;99.90;;;;;;5034518;28;20053;-77
2022/05/09 02:19:34;;;;;;;8.07;5.55;;;14.60;99.90;;;;;;5017511;28;20382;-77
2022/05/09 02:22:00;;;;;;;8.07;5.72;;;14.50;99.90;;;;;;5017153;28;20045;-76
2022/05/09 02:24:27;;;;;;;10.02;6.03;;;14.50;99.90;;;;;;5017186;28;20029;-77
2022/05/09 02:26:54;;;;;;;8.68;5.80;;;14.40;99.90;;;;;;5017498;28;20026;-77
2022/05/09 02:29:20;;;;;;;10.10;5.70;;;14.40;99.90;;;;;;5035114;28;20517;-77
2022/05/09 02:31:45;;;;;;;9.07;5.70;;;14.40;99.90;;;;;;5017588;28;20128;-77
2022/05/09 02:34:12;;;;;;;9.98;6.40;;;14.40;99.90;;;;;;5034549;28;20071;-77
2022/05/09 02:36:38;;;;;;;8.50;5.68;;;14.40;99.90;;;;;;5033935;28;20136;-77
2022/05/09 02:39:04;;;;;;;8.57;5.90;;;14.40;99.90;;;;;;5017339;28;20440;-77
2022/05/09 02:41:30;;;;;;;9.18;6.00;;;14.40;99.90;;;;;;5016974;28;20065;-76
2022/05/09 02:43:55;;;;;;;11.77;6.45;;;14.30;99.90;;;;;;5035086;28;20018;-77
2022/05/09 02:46:21;;;;;;;9.52;6.43;;;14.30;99.90;;;;;;5033376;28;20079;-77
2022/05/09 02:48:47;;;;;;;10.18;6.15;;;14.30;99.90;;;;;;5016883;28;20029;-77
2022/05/09 02:51:13;;;;;;;10.13;6.65;;;14.30;99.90;;;;;;5016707;28;20092;-77
2022/05/09 02:53:39;;;;;;;9.90;6.30;;;14.20;99.90;;;;;;5033678;28;20374;-77
2022/05/09 02:56:06;;;;;;;10.15;6.07;;;14.10;99.90;;;;;;5034896;28;20057;-77
2022/05/09 02:58:33;;;;;;;12.25;6.05;;;14.20;99.90;;;;;;5016253;28;20036;-77
2022/05/09 03:00:58;;;;;;;8.73;6.70;;;14.00;99.90;;;;;;5034714;28;20069;-76
2022/05/09 03:06:09;;;;;;;15.15;6.75;;;14.00;99.90;;;;;;5034578;28;20172;-81
2022/05/09 03:08:35;;;;;;;10.98;6.78;;;13.90;99.90;;;;;;5016486;28;20475;-77
2022/05/09 03:11:00;;;;;;;8.98;6.40;;;13.90;99.90;;;;;;5034386;28;20113;-77
2022/05/09 03:13:26;;;;;;;13.57;7.00;;;14.00;99.90;;;;;;5015907;28;20445;-77
2022/05/09 03:15:52;;;;;;;12.05;6.22;;;14.00;99.90;;;;;;5016581;28;20021;-77
2022/05/09 03:18:22;;;;;;;11.20;7.57;;;14.00;99.90;;;;;;5015952;28;20026;-77
2022/05/09 03:20:48;;;;;;;11.93;6.78;;;13.90;99.90;;;;;;5034081;28;20033;-77
2022/05/09 03:23:14;;;;;;;12.40;7.80;;;13.90;99.90;;;;;;5012574;28;20104;-78
2022/05/09 03:25:40;;;;;;;12.50;7.03;;;13.90;99.90;;;;;;5014445;28;20026;-77
2022/05/09 03:28:10;;;;;;;11.25;6.90;;;13.90;99.90;;;;;;5014341;28;20030;-77
2022/05/09 03:30:37;;;;;;;10.68;7.25;;;13.90;99.90;;;;;;5012888;28;20034;-77
2022/05/09 03:33:03;;;;;;;10.70;7.45;;;13.90;99.90;;;;;;5029558;28;20111;-77
2022/05/09 03:35:30;;;;;;;10.45;6.88;;;13.90;99.90;;;;;;5028770;28;20030;-76
2022/05/09 03:37:56;;;;;;;13.50;7.32;;;13.90;99.90;;;;;;5012754;28;20398;-77
2022/05/09 03:40:22;;;;;;;11.38;6.82;;;13.90;99.90;;;;;;5013174;28;20505;-77
2022/05/09 03:42:49;;;;;;;11.30;7.57;;;13.90;99.90;;;;;;5014119;28;20033;-76
2022/05/09 03:45:15;;;;;;;11.15;7.55;;;13.90;99.90;;;;;;5013092;28;20104;-80
2022/05/09 03:47:42;;;;;;;12.18;7.32;;;13.90;99.90;;;;;;5014137;28;20455;-77
2022/05/09 03:50:10;;;;;;;11.00;7.35;;;13.90;99.90;;;;;;5012813;28;20455;-78
2022/05/09 03:52:35;;;;;;;11.52;7.05;;;13.90;99.90;;;;;;5013380;28;20498;-77
2022/05/09 03:55:01;;;;;;;13.93;7.18;;;13.80;99.90;;;;;;5012910;28;20034;-77
2022/05/09 03:57:27;;;;;;;14.48;7.20;;;13.80;99.90;;;;;;5012167;28;20116;-77
2022/05/09 03:59:53;;;;;;;10.80;7.20;;;13.80;99.90;;;;;;5012758;28;20121;-76
2022/05/09 04:02:19;;;;;;;11.65;7.88;;;13.80;99.90;;;;;;5011948;28;20524;-78
2022/05/09 04:04:44;;;;;;;9.65;6.68;;;13.80;99.90;;;;;;5012801;28;20033;-77
2022/05/09 04:07:10;;;;;;;14.48;7.90;;;13.70;99.90;;;;;;5012958;28;20066;-78
2022/05/09 04:09:36;;;;;;;13.57;6.72;;;13.70;99.90;;;;;;5012304;28;20033;-77
2022/05/09 04:12:02;;;;;;;11.32;6.80;;;13.70;99.90;;;;;;5012599;28;20398;-77
2022/05/09 04:17:14;;;;;;;10.35;7.22;;;13.70;99.90;;;;;;5013777;28;20482;-79
2022/05/09 04:19:41;;;;;;;11.70;7.20;;;13.70;99.90;;;;;;5013366;28;20478;-77
2022/05/09 04:22:07;;;;;;;11.77;7.00;;;13.70;99.90;;;;;;5012131;28;20054;-77
2022/05/09 04:24:33;;;;;;;11.43;6.60;;;13.60;99.90;;;;;;5028485;28;20026;-78
2022/05/09 04:27:00;;;;;;;11.27;7.13;;;13.60;99.90;;;;;;5012712;28;20033;-77
2022/05/09 04:29:27;;;;;;;12.45;7.70;;;13.60;99.90;;;;;;5012237;28;20030;-78
2022/05/09 04:31:52;;;;;;;11.68;6.32;;;13.60;99.90;;;;;;5013759;28;20034;-77
2022/05/09 04:34:18;;;;;;;12.98;7.30;;;13.60;99.90;;;;;;5013125;28;20018;-78
2022/05/09 04:36:44;;;;;;;10.02;6.78;;;13.60;99.90;;;;;;5029229;28;20061;-78
2022/05/09 04:39:10;;;;;;;12.23;7.15;;;13.70;99.90;;;;;;5013590;28;20053;-78
2022/05/09 04:41:36;;;;;;;12.70;7.60;;;13.70;99.90;;;;;;5028834;28;20026;-78
2022/05/09 04:44:05;;;;;;;10.18;6.95;;;13.70;99.90;;;;;;5013627;28;20022;-77
2022/05/09 04:46:34;;;;;;;11.15;6.90;;;13.60;99.90;;;;;;5012143;28;20485;-78
2022/05/09 04:49:00;;;;;;;11.40;6.60;;;13.60;99.90;;;;;;5012349;28;20053;-77
2022/05/09 04:51:25;;;;;;;12.20;7.15;;;13.60;99.90;;;;;;5027888;28;20509;-77
2022/05/09 04:53:51;;;;;;;10.68;6.63;;;13.60;99.90;;;;;;5028539;28;20030;-77
2022/05/09 04:56:18;;;;;;;11.88;7.03;;;13.60;99.90;;;;;;5028343;28;20075;-78
2022/05/09 04:58:43;;;;;;;14.13;7.28;;;13.60;99.90;;;;;;5014668;28;20454;-77
2022/05/09 05:01:10;;;;;;;11.50;6.68;;;13.60;99.90;;;;;;5016160;28;20026;-77
2022/05/09 05:03:35;;;;;;;10.68;6.75;;;13.60;99.90;;;;;;5016015;28;20032;-78
2022/05/09 05:06:03;;;;;;;10.90;7.07;;;13.60;99.90;;;;;;5032627;28;20395;-77
2022/05/09 05:08:33;;;;;;;11.13;6.90;;;13.60;99.90;;;;;;5015705;28;20030;-77
2022/05/09 05:11:00;;;;;;;11.25;7.43;;;13.60;99.90;;;;;;5032441;28;20034;-77
2022/05/09 05:13:26;;;;;;;11.38;6.80;;;13.60;99.90;;;;;;5015813;28;20076;-78
2022/05/09 05:15:53;;;;;;;10.35;7.15;;;13.60;99.90;;;;;;5032775;28;20474;-77
2022/05/09 05:18:20;;;;;;;12.93;6.80;;;13.60;99.90;;;;;;5015679;28;20030;-83
2022/05/09 05:20:45;;;;;;;12.25;7.30;;;13.70;99.90;;;;;;5015491;28;20030;-77
2022/05/09 05:23:11;;;;;;;10.18;6.45;;;13.70;99.90;;;;;;5015431;28;20054;-77
2022/05/09 05:25:40;;;;;;;15.45;6.47;;;13.70;99.90;;;;;;5016037;28;20022;-77
2022/05/09 05:28:06;;;;;;;10.23;6.30;;;13.70;99.90;;;;;;5015608;28;20426;-77
2022/05/09 05:30:32;;;;;;;12.45;6.45;;;13.80;99.90;;;;;;5015077;28;20030;-77
2022/05/09 05:32:59;;;;;;;9.95;6.32;;;13.80;99.90;;;;;;5015535;28;20065;-76
2022/05/09 05:35:25;;;;;;;14.02;6.03;;;13.90;99.90;;;;;;5031493;28;20393;-77
2022/05/09 05:37:51;;;;;;;9.40;6.40;;;13.90;99.90;;;;;;5016572;28;20022;-77
2022/05/09 05:40:17;;;;;;;12.48;7.07;;;13.90;99.90;;;;;;5016511;28;20026;-77
2022/05/09 05:42:45;;;;;;;14.32;6.47;;;13.90;99.90;;;;;;5016279;28;20029;-77
2022/05/09 05:45:12;;;;;;;12.30;6.03;;;14.00;99.90;;;;;;5015462;28;20049;-77
2022/05/09 05:47:39;;;;;;;13.73;6.47;;;14.00;99.90;;;;;;5015927;28;20026;-77
2022/05/09 05:50:07;;;;;;;11.93;6.07;;;14.00;99.90;;;;;;5014882;28;20030;-77
2022/05/09 05:52:32;;;;;;;13.32;7.43;;;14.00;99.90;;;;;;5015745;28;20125;-77
2022/05/09 05:54:58;;;;;;;11.70;7.38;;;14.10;99.90;;;;;;5016403;28;20515;-77
2022/05/09 05:57:30;;;;;;;9.75;6.55;;;14.10;99.90;;;;;;5030666;28;20120;-77
2022/05/09 06:00:04;;;;;;;8.93;6.20;;;14.20;99.90;;;;;;5015942;28;20022;-77
2022/05/09 06:02:31;;;;;;;8.70;5.90;;;14.20;99.90;;;;;;5014368;28;20469;-77
2022/05/09 06:04:57;;;;;;;10.13;6.30;;;14.30;99.90;;;;;;5014986;28;20077;-76
2022/05/09 06:07:23;;;;;;;9.32;6.00;;;14.30;99.90;;;;;;5015386;28;20415;-81
2022/05/09 06:09:49;;;;;;;10.68;5.90;;;14.30;99.90;;;;;;5014170;28;20076;-77
2022/05/09 06:12:17;;;;;;;10.70;6.38;;;14.40;99.90;;;;;;5014535;28;20038;-77
2022/05/09 06:14:43;;;;;;;10.82;6.10;;;14.40;99.90;;;;;;5014081;28;20026;-76
2022/05/09 06:17:10;;;;;;;10.07;6.25;;;14.50;99.90;;;;;;5015827;28;20080;-77
2022/05/09 06:19:37;;;;;;;10.95;6.38;;;14.50;99.90;;;;;;5014291;28;20030;-77
2022/05/09 06:22:04;;;;;;;9.63;6.45;;;14.60;99.90;;;;;;5014093;28;20054;-77
2022/05/09 06:24:30;;;;;;;8.65;5.32;;;14.70;99.90;;;;;;5013827;28;20033;-77
2022/05/09 06:26:56;;;;;;;10.82;6.32;;;14.70;99.90;;;;;;5014488;28;20026;-78
2022/05/09 06:29:23;;;;;;;8.55;5.85;;;14.70;99.90;;;;;;5010755;28;20033;-78
2022/05/09 06:31:49;;;;;;;11.40;6.00;;;14.80;99.90;;;;;;5008354;28;20041;-77
2022/05/09 06:34:15;;;;;;;9.73;5.45;;;14.90;99.90;;;;;;5001817;28;20026;-77
2022/05/09 06:36:43;;;;;;;7.93;5.55;;;14.90;99.90;;;;;;5013514;28;20041;-77
2022/05/09 06:39:10;;;;;;;9.02;5.65;;;14.90;99.90;;;;;;5015125;28;20064;-77
2022/05/09 06:41:36;;;;;;;7.25;5.85;;;15.00;99.90;;;;;;5014048;28;20038;-77
2022/05/09 06:44:02;;;;;;;9.48;6.63;;;15.00;99.90;;;;;;5013870;28;20088;-78
2022/05/09 06:46:28;;;;;;;8.52;5.85;;;15.00;99.90;;;;;;5013080;28;20052;-77
2022/05/09 06:48:53;;;;;;;18.40;6.15;;;15.10;99.90;;;;;;5013449;28;20135;-77
2022/05/09 06:51:19;;;;;;;10.15;5.85;;;15.10;99.90;;;;;;5008702;28;20042;-77
2022/05/09 06:53:45;;;;;;;9.90;7.05;;;15.20;99.90;;;;;;5009965;28;20030;-76
2022/05/09 06:56:11;;;;;;;9.32;5.95;;;15.20;99.90;;;;;;5012973;28;20054;-76
2022/05/09 06:58:37;;;;;;;10.13;5.90;;;15.20;99.90;;;;;;5013017;28;20449;-77
2022/05/09 07:01:16;;;;;;;7.55;5.97;;;15.30;99.90;;;;;;5013543;28;20049;-77
2022/05/09 07:03:43;;;;;;;9.65;5.28;;;15.30;99.90;;;;;;5013527;28;20025;-78
2022/05/09 07:06:09;;;;;;;8.52;5.80;;;15.40;99.90;;;;;;5013746;28;20030;-77
2022/05/09 07:08:35;;;;;;;9.88;6.35;;;15.40;99.90;;;;;;5013156;28;20141;-77
2022/05/09 07:11:02;;;;;;;9.80;6.00;;;15.50;99.90;;;;;;5013297;28;20029;-77
2022/05/09 07:13:28;;;;;;;7.32;5.57;;;15.50;99.90;;;;;;5014293;28;20030;-77
2022/05/09 07:15:57;;;;;;;9.80;5.80;;;15.60;99.90;;;;;;5014678;28;20029;-77
2022/05/09 07:18:25;;;;;;;7.65;5.50;;;15.60;99.90;;;;;;5014486;28;20060;-80
2022/05/09 07:20:51;;;;;;;10.77;6.70;;;15.60;99.90;;;;;;5012159;28;20049;-77
2022/05/09 07:23:17;;;;;;;9.45;5.90;;;15.60;99.90;;;;;;5028939;28;20410;-76
2022/05/09 07:25:43;;;;;;;9.50;5.47;;;15.70;99.90;;;;;;5034018;28;20563;-77
2022/05/09 07:28:11;;;;;;;11.15;5.95;;;15.80;99.90;;;;;;5034101;28;20072;-77
2022/05/09 07:30:38;;;;;;;9.98;6.35;;;15.80;99.90;;;;;;5032471;28;20363;-77
2022/05/09 07:33:04;;;;;;;8.55;6.00;;;15.80;99.90;;;;;;5016638;28;20041;-77
2022/05/09 07:35:32;;;;;;;8.18;5.90;;;15.90;99.90;;;;;;5032474;28;20426;-77
2022/05/09 07:37:58;;;;;;;11.35;5.65;;;15.90;99.90;;;;;;5016474;28;20471;-76
2022/05/09 07:40:24;;;;;;;8.20;5.68;;;16.00;99.90;;;;;;5016542;28;20128;-77
2022/05/09 07:42:49;;;;;;;8.25;5.55;;;16.10;99.90;;;;;;5004074;28;20061;-78
2022/05/09 07:45:18;;;;;;;8.35;5.45;;;16.10;99.90;;;;;;5013133;28;20053;-77
2022/05/09 07:47:44;;;;;;;8.15;5.10;;;16.20;99.90;;;;;;5013999;28;20018;-76
2022/05/09 07:50:13;;;;;;;9.57;5.50;;;16.20;99.90;;;;;;5014875;28;20113;-78
2022/05/09 07:52:41;;;;;;;8.63;5.53;;;16.30;99.90;;;;;;5012800;28;20065;-76
2022/05/09 07:55:07;;;;;;;8.85;6.00;;;16.30;99.90;;;;;;5014363;28;20026;-77
2022/05/09 07:57:32;;;;;;;7.95;5.03;;;16.40;99.90;;;;;;5011482;28;20368;-77
2022/05/09 07:59:59;;;;;;;6.85;4.95;;;16.40;99.90;;;;;;4996463;28;20033;-77
2022/05/09 08:02:25;;;;;;;10.55;5.25;;;16.40;99.90;;;;;;5012798;28;20077;-77
2022/05/09 08:04:51;;;;;;;7.30;5.30;;;16.50;99.90;;;;;;5012761;28;20026;-77
2022/05/09 08:07:17;;;;;;;6.32;4.95;;;16.50;99.90;;;;;;4980234;28;20482;-79
2022/05/09 08:09:42;;;;;;;9.23;5.18;;;16.50;99.90;;;;;;5018046;28;20026;-81
2022/05/09 08:12:09;;;;;;;7.25;5.05;;;16.60;99.90;;;;;;5026246;28;20041;-80
2022/05/09 08:14:34;;;;;;;10.05;4.93;;;16.60;99.90;;;;;;5029863;28;20328;-84
2022/05/09 08:17:02;;;;;;;8.55;5.30;;;16.70;99.90;;;;;;5022501;28;20427;-83
2022/05/09 08:19:31;;;;;;;8.25;5.07;;;16.70;99.90;;;;;;5021741;28;20036;-84
2022/05/09 08:21:58;;;;;;;6.63;4.60;;;16.80;99.90;;;;;;5014923;28;20138;-78
2022/05/09 08:24:25;;;;;;;9.45;5.25;;;16.80;99.90;;;;;;5013203;28;20030;-79
2022/05/09 08:26:51;;;;;;;7.13;5.25;;;16.80;99.90;;;;;;4982269;28;20030;-75
2022/05/09 08:29:16;;;;;;;8.88;5.20;;;16.90;99.90;;;;;;5016492;28;20410;-77
2022/05/09 08:31:42;;;;;;;11.70;5.40;;;16.90;99.90;;;;;;5012486;28;20080;-76
2022/05/09 08:34:08;;;;;;;6.90;5.45;;;16.90;99.90;;;;;;5013065;28;20030;-76
2022/05/09 08:36:46;;;;;;;8.20;4.93;;;17.00;99.90;;;;;;5012739;28;20459;-78
2022/05/09 08:39:13;;;;;;;8.60;5.00;;;17.10;99.90;;;;;;5025618;28;20033;-77
2022/05/09 08:42:04;;;;;;;9.68;4.88;;;17.20;99.90;;;;;;5016441;28;20359;-78
2022/05/09 08:44:39;;;;;;;9.32;5.55;;;17.20;99.90;;;;;;4999390;28;20113;-81
2022/05/09 08:47:10;;;;;;;8.45;5.68;;;17.30;99.90;;;;;;5012575;28;20116;-77
2022/05/09 08:49:38;;;;;;;5.90;4.50;;;17.30;99.90;;;;;;5012670;28;20093;-77
2022/05/09 08:52:10;;;;;;;6.07;4.55;;;17.40;99.90;;;;;;5026001;28;20538;-77
2022/05/09 08:54:36;;;;;;;;;;;17.40;99.90;;;;;;5016896;28;20036;-76
2022/05/09 08:57:15;;;;;;;8.27;4.68;;;17.40;99.90;;;;;;5019383;28;19995;-78
2022/05/09 08:59:58;;;;;;;9.63;4.45;;;17.40;99.90;;;;;;5034338;28;20037;-80
2022/05/09 09:02:40;;;;;;;10.40;4.63;;;17.50;99.90;;;;;;5012332;28;20026;-79
2022/05/09 09:05:09;;;;;;;8.30;4.43;;;17.60;99.90;;;;;;5009989;28;20025;-78
2022/05/09 09:08:00;;;;;;;6.03;4.70;;;17.60;99.90;;;;;;5027351;28;20026;-76
2022/05/09 09:11:02;;;;;;;7.15;4.25;;;17.70;99.90;;;;;;5012199;28;20050;-75
2022/05/09 09:13:39;;;;;;;;;;;17.80;99.90;;;;;;5019742;28;20133;-81
2022/05/09 09:16:19;;;;;;;7.40;4.40;;;17.90;99.90;;;;;;5014464;28;19911;-77
2022/05/09 09:19:22;;;;;;;5.93;3.92;;;18.00;99.90;;;;;;4998531;28;20360;-76
2022/05/09 09:22:19;;;;;;;7.75;4.07;;;18.10;99.90;;;;;;5004616;28;20026;-77
2022/05/09 09:25:22;;;;;;;11.90;4.55;;;18.10;99.90;;;;;;4995109;28;20026;-78
2022/05/09 09:27:53;;;;;;;6.32;3.88;;;18.10;99.90;;;;;;5003994;28;20191;-74
2022/05/09 09:30:22;;;;;;;5.97;4.47;;;18.10;99.90;;;;;;5014556;28;20049;-74
2022/05/09 09:33:00;;;;;;;6.13;4.43;;;18.20;99.90;;;;;;5011885;28;20124;-77
2022/05/09 09:35:32;;;;;;;6.28;4.10;;;18.30;99.90;;;;;;5001710;28;20021;-76
2022/05/09 09:38:17;;;;;;;7.63;4.25;;;18.40;99.90;;;;;;5012268;28;20360;-77
2022/05/09 09:40:43;;;;;;;6.63;5.07;;;18.40;99.90;;;;;;5028973;28;20105;-78
2022/05/09 09:43:09;;;;;;;7.97;3.90;;;18.40;99.90;;;;;;5013482;28;20140;-77
2022/05/09 09:45:44;;;;;;;6.85;4.07;;;18.60;99.90;;;;;;5025526;28;20026;-78
2022/05/09 09:48:12;;;;;;;8.80;4.43;;;18.60;99.90;;;;;;4998471;28;20037;-77
2022/05/09 09:51:03;;;;;;;6.68;3.97;;;18.60;99.90;;;;;;5031338;28;20373;-77
2022/05/09 09:53:30;;;;;;;;;;;18.50;99.90;;;;;;4998750;28;20124;-76
2022/05/09 09:56:10;;;;;;;6.90;3.83;;;18.60;99.90;;;;;;5016213;28;19945;-73
2022/05/09 09:58:42;;;;;;;5.25;4.05;;;18.70;99.90;;;;;;4998877;28;20022;-74
2022/05/09 10:01:08;;;;;;;5.97;4.10;;;18.80;99.90;;;;;;5018699;28;20171;-73
2022/05/09 10:03:38;;;;;;;6.88;3.80;;;18.90;99.90;;;;;;5010052;28;20116;-73
2022/05/09 10:06:14;;;;;;;5.30;4.28;;;18.90;99.90;;;;;;4998822;28;20038;-76
2022/05/09 10:08:40;;;;;;;7.07;4.57;;;19.00;99.90;;;;;;4995694;28;20117;-77
2022/05/09 10:11:08;;;;;;;5.50;4.68;;;19.00;99.90;;;;;;5015228;28;20391;-76
2022/05/09 10:13:41;;;;;;;6.15;4.30;;;19.20;99.90;;;;;;5015434;28;20022;-77
2022/05/09 10:16:13;;;;;;;5.90;3.72;;;19.20;99.90;;;;;;5010385;28;20026;-76
2022/05/09 10:18:42;;;;;;;4.70;3.85;;;19.20;99.90;;;;;;5020427;28;20108;-77
2022/05/09 10:26:59;;;;;;;6.13;4.47;;;19.30;99.90;;;;;;5034435;28;20259;-77
2022/05/09 10:29:29;;;;;;;6.78;4.05;;;19.20;99.90;;;;;;5010194;28;20033;-76
2022/05/09 10:32:00;;;;;;;6.22;4.20;;;19.20;99.90;;;;;;5013509;28;20088;-77
2022/05/09 10:34:31;;;;;;;6.72;4.28;;;19.30;99.30;;;;;;5012492;28;20026;-76
2022/05/09 10:37:14;;;;;;;4.40;3.78;;;19.40;99.50;;;;;;5034548;28;20381;-76
2022/05/09 10:39:45;;;;;;;5.18;3.67;;;19.60;99.90;;;;;;5026924;28;20021;-77
2022/05/09 10:42:15;;;;;;;6.50;4.57;;;19.70;99.00;;;;;;5004120;28;20053;-76
2022/05/09 10:44:57;;;;;;;6.90;3.80;;;19.90;99.30;;;;;;5012550;28;20037;-76
2022/05/09 10:47:30;;;;;;;;;;;20.00;98.80;;;;;;5003914;28;20017;-77
2022/05/09 10:50:05;;;;;;;6.35;3.95;;;19.90;96.70;;;;;;5000331;28;19971;-76
2022/05/09 10:52:45;;;;;;;5.78;3.53;;;20.00;98.20;;;;;;5007774;28;20058;-76
2022/05/09 10:55:21;;;;;;;4.70;3.65;;;20.00;99.90;;;;;;5012158;28;20094;-76
2022/05/09 10:58:01;;;;;;;4.90;3.95;;;20.20;99.00;;;;;;4995238;28;20121;-77
2022/05/09 11:00:27;;;;;;;4.63;3.50;;;20.20;98.60;;;;;;4996888;28;20044;-81
2022/05/09 11:03:03;;;;;;;3.75;3.30;;;20.20;97.80;;;;;;4976184;28;20026;-76
2022/05/09 11:05:40;;;;;;;5.53;3.72;;;20.40;99.50;;;;;;4999295;28;20042;-77
2022/05/09 11:08:20;;;;;;;7.45;3.65;;;20.50;98.60;;;;;;4985787;28;20497;-76
2022/05/09 11:11:05;;;;;;;7.75;4.03;;;20.60;99.60;;;;;;4993170;28;20046;-76
2022/05/09 11:14:03;;;;;;;4.60;3.50;;;20.60;98.20;;;;;;5003789;28;20038;-76
2022/05/09 11:16:43;;;;;;;4.63;3.60;;;20.70;96.20;;;;;;4991857;28;20034;-77
2022/05/09 11:19:47;;;;;;;6.65;4.28;;;20.80;95.60;;;;;;4992195;28;20031;-76
2022/05/09 11:22:36;;;;;;;7.55;4.05;;;20.80;96.80;;;;;;5013745;28;20401;-76
2022/05/09 11:25:30;;;;;;;5.80;3.63;;;20.90;97.70;;;;;;5016105;28;20030;-76
2022/05/09 11:28:25;;;;;;;6.13;3.78;;;20.90;96.40;;;;;;5016077;28;20112;-76
2022/05/09 11:31:20;;;;;;;6.95;3.92;;;21.10;97.40;;;;;;5013297;28;20025;-76
2022/05/09 11:34:13;;;;;;;5.85;3.85;;;21.10;96.90;;;;;;4995711;28;20072;-74
2022/05/09 11:37:22;;;;;;;5.05;3.40;;;21.30;96.30;;;;;;5011870;28;20462;-75
2022/05/09 11:39:48;;;;;;;4.22;3.65;;;21.40;95.40;;;;;;5009133;28;20030;-76
2022/05/09 11:45:23;;;;;;;6.78;3.55;;;21.40;93.20;;;;;;5019994;28;20032;-77
2022/05/09 11:48:07;;;;;;;4.25;3.40;;;21.60;96.50;;;;;;5011662;28;20052;-76
2022/05/09 11:50:59;;;;;;;4.32;3.53;;;21.70;96.10;;;;;;5012741;28;20030;-77
2022/05/09 11:53:26;;;;;;;;;;;21.80;94.40;;;;;;5019632;28;20112;-76
2022/05/09 11:55:53;;;;;;;3.45;3.05;;;21.80;93.90;;;;;;5015076;28;19908;-76
2022/05/09 11:58:20;;;;;;;3.85;3.25;;;21.90;93.50;;;;;;5018655;28;20084;-76
2022/05/09 12:00:49;;;;;;;5.00;3.72;;;22.10;94.50;;;;;;4996843;28;20029;-78
2022/05/09 12:03:35;;;;;;;4.03;3.15;;;22.20;92.10;;;;;;5009882;28;20036;-76
2022/05/09 12:06:03;;;;;;;6.45;3.42;;;22.20;91.10;;;;;;5006884;28;20520;-76
2022/05/09 12:08:47;;;;;;;5.43;3.53;;;22.30;91.40;;;;;;5011938;28;20049;-77
2022/05/09 12:11:25;;;;;;;6.10;3.30;;;22.60;92.90;;;;;;5043188;28;20047;-76
2022/05/09 12:13:53;;;;;;;4.70;3.28;;;22.60;91.50;;;;;;5003894;28;20167;-76
2022/05/09 12:16:37;;;;;;;5.75;3.10;;;22.80;92.10;;;;;;4995607;28;20144;-77
2022/05/09 12:19:05;;;;;;;5.57;3.33;;;23.00;92.20;;;;;;4999242;28;20028;-76
2022/05/09 12:21:37;;;;;;;4.55;3.42;;;23.10;92.60;;;;;;5014508;28;20449;-75
2022/05/09 12:24:15;;;;;;;4.10;3.70;;;23.20;85.00;;;;;;5003200;28;20057;-76
2022/05/09 12:26:46;;;;;;;4.57;2.90;;;23.10;84.00;;;;;;5011025;28;20082;-74
2022/05/09 12:29:12;;;;;;;5.15;3.40;;;23.10;85.40;;;;;;5000556;28;20131;-74
2022/05/09 12:31:59;;;;;;;4.65;3.80;;;23.30;89.00;;;;;;5005867;28;20486;-77
2022/05/09 12:34:33;;;;;;;6.78;3.40;;;23.40;83.50;;;;;;4994840;28;20037;-74
2022/05/09 12:37:00;;;;;;;4.40;3.72;;;23.60;84.90;;;;;;5014935;28;20036;-74
2022/05/09 12:39:34;;;;;;;6.78;3.70;;;23.70;86.70;;;;;;5025347;28;20033;-74
2022/05/09 12:42:02;;;;;;;3.95;3.40;;;23.70;86.40;;;;;;4995137;28;20128;-75
2022/05/09 12:44:43;;;;;;;3.83;3.33;;;23.60;84.80;;;;;;4994704;28;20033;-75
2022/05/09 12:47:13;;;;;;;5.22;3.35;;;23.60;86.50;;;;;;5016601;28;20018;-77
2022/05/09 12:49:45;;;;;;;5.38;3.35;;;23.80;86.70;;;;;;5005696;28;20030;-79
2022/05/09 12:52:22;;;;;;;4.28;3.45;;;24.00;85.70;;;;;;5008165;28;20080;-75
2022/05/09 12:55:52;;;;;;;5.38;3.40;;;24.30;87.20;;;;;;4998171;28;20048;-75
2022/05/09 12:57:38;;;;;;;3.55;3.20;;;24.40;82.10;;;;;;5031590;28;20059;-75
2022/05/09 13:00:37;;;;;;;5.30;3.30;;;24.30;79.40;;;;;;5002540;28;20594;-75
2022/05/09 13:03:05;;;;;;;6.22;3.50;;;24.30;75.50;;;;;;4987858;28;20483;-79
2022/05/09 13:05:38;;;;;;;4.63;3.78;;;24.70;79.60;;;;;;4995061;28;20375;-79
2022/05/09 13:08:06;;;;;;;4.00;3.30;;;24.90;78.30;;;;;;5007345;28;20030;-80
2022/05/09 13:10:42;;;;;;;5.05;3.30;;;25.20;79.00;;;;;;5014774;28;20030;-81
2022/05/09 13:13:09;;;;;;;4.53;3.28;;;25.40;77.20;;;;;;4999899;28;20470;-80
2022/05/09 13:15:35;;;;;;;3.83;3.30;;;25.50;71.30;;;;;;5006156;28;20117;-79
2022/05/09 13:18:11;;;;;;;5.82;3.55;;;25.70;72.30;;;;;;5006889;28;20414;-81